createdAt,value
2022-09-18T00:01:32.567Z,96600.00
2022-09-18T00:04:02.892Z,96586.00
2022-09-18T00:06:34.061Z,96601.00
2022-09-18T00:09:05.532Z,96597.00
2022-09-18T00:11:38.372Z,96591.00
2022-09-18T00:14:08.056Z,96594.00
2022-09-18T00:16:35.557Z,96605.00
2022-09-18T00:19:02.614Z,96600.00
2022-09-18T00:21:31.794Z,96609.00
2022-09-18T00:24:01.495Z,96603.00
2022-09-18T00:26:29.343Z,96610.00
2022-09-18T00:28:58.394Z,96612.00
2022-09-18T00:31:29.958Z,96616.00
2022-09-18T00:34:01.374Z,96609.00
2022-09-18T00:36:29.792Z,96624.00
2022-09-18T00:39:02.994Z,96624.00
2022-09-18T00:41:34.115Z,96621.00
2022-09-18T00:44:29.661Z,96630.00
2022-09-18T00:47:05.142Z,96623.00
2022-09-18T00:49:32.654Z,96625.00
2022-09-18T00:52:01.679Z,96632.00
2022-09-18T00:54:38.210Z,96627.00
2022-09-18T00:57:10.292Z,96645.00
2022-09-18T00:59:41.057Z,96638.00
2022-09-18T01:02:07.957Z,96641.00
2022-09-18T01:04:34.991Z,96637.00
2022-09-18T01:07:32.112Z,96645.00
2022-09-18T01:10:04.913Z,96638.00
2022-09-18T01:12:55.928Z,96631.00
2022-09-18T01:15:44.841Z,96626.00
2022-09-18T01:18:45.296Z,96627.00
2022-09-18T01:21:26.929Z,96619.00
2022-09-18T01:24:14.708Z,96629.00
2022-09-18T01:26:56.432Z,96632.00
2022-09-18T01:30:05.821Z,96631.00
2022-09-18T01:32:57.599Z,96635.00
2022-09-18T01:35:44.622Z,96620.00
2022-09-18T01:38:34.094Z,96619.00
2022-09-18T01:41:16.788Z,96618.00
2022-09-18T01:43:45.696Z,96627.00
2022-09-18T01:46:16.625Z,96615.00
2022-09-18T01:49:16.231Z,96614.00
2022-09-18T01:51:59.801Z,96621.00
2022-09-18T01:54:33.425Z,96625.00
2022-09-18T01:57:11.877Z,96621.00
2022-09-18T01:59:50.949Z,96619.00
2022-09-18T02:02:32.947Z,96626.00
2022-09-18T02:05:05.446Z,96620.00
2022-09-18T02:08:00.192Z,96619.00
2022-09-18T02:10:31.095Z,96617.00
2022-09-18T02:13:00.211Z,96605.00
2022-09-18T02:15:30.395Z,96605.00
2022-09-18T02:18:05.867Z,96603.00
2022-09-18T02:20:35.302Z,96603.00
2022-09-18T02:23:06.842Z,96616.00
2022-09-18T02:25:52.262Z,96612.00
2022-09-18T02:28:23.034Z,96644.00
2022-09-18T02:30:49.839Z,96622.00
2022-09-18T02:33:33.677Z,96621.00
2022-09-18T02:36:53.466Z,96627.00
2022-09-18T02:39:58.601Z,96639.00
2022-09-18T02:42:52.370Z,96640.00
2022-09-18T02:48:43.266Z,96644.00
2022-09-18T02:51:21.065Z,96643.00
2022-09-18T02:54:07.130Z,96652.00
2022-09-18T02:56:55.630Z,96651.00
2022-09-18T02:59:44.817Z,96644.00
2022-09-18T03:02:13.312Z,96645.00
2022-09-18T03:04:40.273Z,96649.00
2022-09-18T03:07:07.360Z,96649.00
2022-09-18T03:09:34.772Z,96651.00
2022-09-18T03:12:03.108Z,96651.00
2022-09-18T03:14:29.831Z,96649.00
2022-09-18T03:16:56.577Z,96635.00
2022-09-18T03:19:23.411Z,96645.00
2022-09-18T03:21:51.218Z,96649.00
2022-09-18T03:24:18.034Z,96655.00
2022-09-18T03:26:44.844Z,96649.00
2022-09-18T03:29:14.013Z,96652.00
2022-09-18T03:31:41.546Z,96663.00
2022-09-18T03:34:08.610Z,96649.00
2022-09-18T03:36:35.816Z,96654.00
2022-09-18T03:39:03.431Z,96661.00
2022-09-18T03:41:30.172Z,96658.00
2022-09-18T03:43:57.256Z,96658.00
2022-09-18T03:46:24.205Z,96660.00
2022-09-18T03:48:51.952Z,96648.00
2022-09-18T03:51:21.746Z,96660.00
2022-09-18T03:53:51.103Z,96653.00
2022-09-18T03:56:18.274Z,96646.00
2022-09-18T03:58:45.184Z,96647.00
2022-09-18T04:01:13.667Z,96657.00
2022-09-18T04:03:40.808Z,96663.00
2022-09-18T04:06:07.971Z,96655.00
2022-09-18T04:08:36.045Z,96661.00
2022-09-18T04:11:04.537Z,96656.00
2022-09-18T04:13:33.116Z,96663.00
2022-09-18T04:16:00.231Z,96670.00
2022-09-18T04:18:27.054Z,96657.00
2022-09-18T04:20:53.894Z,96657.00
2022-09-18T04:23:20.726Z,96657.00
2022-09-18T04:25:47.558Z,96656.00
2022-09-18T04:28:14.288Z,96667.00
2022-09-18T04:30:41.019Z,96666.00
2022-09-18T04:33:07.982Z,96667.00
2022-09-18T04:35:34.971Z,96663.00
2022-09-18T04:38:01.738Z,96664.00
2022-09-18T04:40:28.546Z,96661.00
2022-09-18T04:42:55.528Z,96666.00
2022-09-18T04:45:22.284Z,96660.00
2022-09-18T04:47:49.473Z,96672.00
2022-09-18T04:50:16.315Z,96673.00
2022-09-18T04:52:44.229Z,96671.00
2022-09-18T04:55:10.994Z,96671.00
2022-09-18T04:57:37.764Z,96674.00
2022-09-18T05:00:06.653Z,96678.00
2022-09-18T05:02:33.437Z,96664.00
2022-09-18T05:05:00.267Z,96657.00
2022-09-18T05:07:27.605Z,96676.00
2022-09-18T05:09:54.380Z,96679.00
2022-09-18T05:12:21.152Z,96681.00
2022-09-18T05:14:47.914Z,96686.00
2022-09-18T05:17:15.331Z,96681.00
2022-09-18T05:19:42.119Z,96682.00
2022-09-18T05:22:08.910Z,96678.00
2022-09-18T05:24:35.675Z,96680.00
2022-09-18T05:27:03.800Z,96683.00
2022-09-18T05:29:30.557Z,96686.00
2022-09-18T05:31:57.389Z,96682.00
2022-09-18T05:34:24.183Z,96687.00
2022-09-18T05:36:50.939Z,96693.00
2022-09-18T05:39:17.983Z,96692.00
2022-09-18T05:41:49.076Z,96696.00
2022-09-18T05:44:15.816Z,96692.00
2022-09-18T05:46:42.613Z,96701.00
2022-09-18T05:49:09.442Z,96688.00
2022-09-18T05:51:36.194Z,96696.00
2022-09-18T05:54:03.152Z,96708.00
2022-09-18T05:56:30.013Z,96707.00
2022-09-18T05:58:56.777Z,96704.00
2022-09-18T06:01:23.672Z,96701.00
2022-09-18T06:03:50.973Z,96707.00
2022-09-18T06:06:17.810Z,96697.00
2022-09-18T06:08:44.555Z,96699.00
2022-09-18T06:11:11.325Z,96704.00
2022-09-18T06:13:38.080Z,96705.00
2022-09-18T06:16:05.206Z,96712.00
2022-09-18T06:18:32.119Z,96704.00
2022-09-18T06:21:00.109Z,96699.00
2022-09-18T06:23:28.916Z,96702.00
2022-09-18T06:26:01.998Z,96700.00
2022-09-18T06:28:30.668Z,96702.00
2022-09-18T06:30:58.939Z,96703.00
2022-09-18T06:33:25.819Z,96697.00
2022-09-18T06:35:52.851Z,96710.00
2022-09-18T06:38:19.625Z,96701.00
2022-09-18T06:40:51.524Z,96701.00
2022-09-18T06:43:19.107Z,96705.00
2022-09-18T06:45:53.057Z,96713.00
2022-09-18T06:48:19.941Z,96715.00
2022-09-18T06:50:58.118Z,96715.00
2022-09-18T06:53:26.346Z,96709.00
2022-09-18T06:55:58.702Z,96708.00
2022-09-18T06:58:25.667Z,96712.00
2022-09-18T07:00:52.476Z,96707.00
2022-09-18T07:03:19.292Z,96716.00
2022-09-18T07:05:46.280Z,96720.00
2022-09-18T07:08:14.017Z,96709.00
2022-09-18T07:10:41.142Z,96723.00
2022-09-18T07:13:08.470Z,96731.00
2022-09-18T07:15:35.755Z,96727.00
2022-09-18T07:18:05.071Z,96729.00
2022-09-18T07:20:32.060Z,96730.00
2022-09-18T07:23:01.369Z,96731.00
2022-09-18T07:25:31.340Z,96729.00
2022-09-18T07:28:10.636Z,96747.00
2022-09-18T07:30:38.591Z,96746.00
2022-09-18T07:33:07.527Z,96749.00
2022-09-18T07:35:34.534Z,96759.00
2022-09-18T07:38:03.372Z,96751.00
2022-09-18T07:40:30.257Z,96765.00
2022-09-18T07:43:06.604Z,96754.00
2022-09-18T07:45:33.641Z,96763.00
2022-09-18T07:48:07.721Z,96757.00
2022-09-18T07:50:34.627Z,96760.00
2022-09-18T07:53:03.562Z,96760.00
2022-09-18T07:55:30.553Z,96762.00
2022-09-18T07:58:00.571Z,96760.00
2022-09-18T08:00:33.247Z,96761.00
2022-09-18T08:03:09.238Z,96769.00
2022-09-18T08:05:36.185Z,96758.00
2022-09-18T08:08:05.782Z,96751.00
2022-09-18T08:10:33.477Z,96758.00
2022-09-18T08:13:00.298Z,96757.00
2022-09-18T08:15:27.035Z,96751.00
2022-09-18T08:17:53.775Z,96757.00
2022-09-18T08:20:21.122Z,96750.00
2022-09-18T08:22:47.999Z,96757.00
2022-09-18T08:25:14.909Z,96761.00
2022-09-18T08:27:42.309Z,96759.00
2022-09-18T08:30:12.004Z,96769.00
2022-09-18T08:32:39.338Z,96755.00
2022-09-18T08:35:06.641Z,96762.00
2022-09-18T08:37:33.706Z,96753.00
2022-09-18T08:40:00.954Z,96762.00
2022-09-18T08:42:44.071Z,96759.00
2022-09-18T08:45:17.005Z,96748.00
2022-09-18T08:47:53.303Z,96753.00
2022-09-18T08:50:24.854Z,96757.00
2022-09-18T08:53:14.179Z,96751.00
2022-09-18T08:55:44.876Z,96750.00
2022-09-18T08:58:26.078Z,96764.00
2022-09-18T09:01:03.349Z,96766.00
2022-09-18T09:03:55.125Z,96770.00
2022-09-18T09:06:47.197Z,96765.00
2022-09-18T09:09:49.734Z,96764.00
2022-09-18T09:13:19.425Z,96765.00
2022-09-18T09:16:15.059Z,96775.00
2022-09-18T09:19:02.765Z,96773.00
2022-09-18T09:22:13.781Z,96769.00
2022-09-18T09:24:46.970Z,96770.00
2022-09-18T09:27:21.197Z,96758.00
2022-09-18T09:29:49.169Z,96763.00
2022-09-18T09:32:28.017Z,96756.00
2022-09-18T09:35:16.418Z,96770.00
2022-09-18T09:37:46.518Z,96765.00
2022-09-18T09:40:21.208Z,96759.00
2022-09-18T09:42:54.503Z,96765.00
2022-09-18T09:45:35.167Z,96769.00
2022-09-18T09:48:06.817Z,96757.00
2022-09-18T09:51:15.584Z,96756.00
2022-09-18T09:53:42.443Z,96765.00
2022-09-18T09:56:33.220Z,96766.00
2022-09-18T09:59:19.536Z,96768.00
2022-09-18T10:02:18.015Z,96772.00
2022-09-18T10:04:55.796Z,96770.00
2022-09-18T10:07:23.780Z,96759.00
2022-09-18T10:10:20.854Z,96762.00
2022-09-18T10:12:53.254Z,96767.00
2022-09-18T10:15:26.566Z,96761.00
2022-09-18T10:17:59.535Z,96762.00
2022-09-18T10:20:31.434Z,96767.00
2022-09-18T10:23:25.424Z,96766.00
2022-09-18T10:26:01.304Z,96766.00
2022-09-18T10:28:29.639Z,96764.00
2022-09-18T10:31:12.352Z,96766.00
2022-09-18T10:33:45.046Z,96769.00
2022-09-18T10:36:32.837Z,96770.00
2022-09-18T10:39:00.312Z,96770.00
2022-09-18T10:41:39.248Z,96770.00
2022-09-18T10:44:15.263Z,96766.00
2022-09-18T10:47:08.789Z,96770.00
2022-09-18T10:49:40.862Z,96770.00
2022-09-18T10:52:28.345Z,96759.00
2022-09-18T10:55:06.137Z,96762.00
2022-09-18T10:57:39.922Z,96759.00
2022-09-18T11:00:37.432Z,96759.00
2022-09-18T11:03:33.514Z,96747.00
2022-09-18T11:06:04.113Z,96755.00
2022-09-18T11:08:37.442Z,96746.00
2022-09-18T11:11:12.905Z,96739.00
2022-09-18T11:13:59.977Z,96763.00
2022-09-18T11:16:39.379Z,96750.00
2022-09-18T11:19:12.763Z,96750.00
2022-09-18T11:21:48.580Z,96741.00
2022-09-18T11:24:27.314Z,96745.00
2022-09-18T11:27:00.806Z,96730.00
2022-09-18T11:29:34.455Z,96736.00
2022-09-18T11:32:27.461Z,96730.00
2022-09-18T11:34:58.005Z,96740.00
2022-09-18T11:37:49.923Z,96732.00
2022-09-18T11:40:48.313Z,96728.00
2022-09-18T11:43:22.549Z,96731.00
2022-09-18T11:46:30.982Z,96735.00
2022-09-18T11:49:08.286Z,96740.00
2022-09-18T11:51:58.039Z,96736.00
2022-09-18T11:55:08.118Z,96731.00
2022-09-18T11:57:42.346Z,96728.00
2022-09-18T12:00:17.401Z,96736.00
2022-09-18T12:03:12.068Z,96730.00
2022-09-18T12:05:38.805Z,96729.00
2022-09-18T12:09:01.802Z,96733.00
2022-09-18T12:12:02.543Z,96727.00
2022-09-18T12:14:33.815Z,96731.00
2022-09-18T12:17:37.639Z,96722.00
2022-09-18T12:20:10.421Z,96728.00
2022-09-18T12:22:57.876Z,96720.00
2022-09-18T12:25:49.372Z,96721.00
2022-09-18T12:28:19.170Z,96726.00
2022-09-18T12:31:13.179Z,96704.00
2022-09-18T12:34:28.675Z,96712.00
2022-09-18T12:37:38.368Z,96715.00
2022-09-18T12:40:34.019Z,96713.00
2022-09-18T12:43:29.746Z,96708.00
2022-09-18T12:46:14.297Z,96703.00
2022-09-18T12:49:16.035Z,96701.00
2022-09-18T12:52:02.840Z,96699.00
2022-09-18T12:54:46.571Z,96702.00
2022-09-18T12:57:30.718Z,96695.00
2022-09-18T13:00:09.959Z,96698.00
2022-09-18T13:03:01.646Z,96695.00
2022-09-18T13:05:38.886Z,96695.00
2022-09-18T13:08:18.034Z,96694.00
2022-09-18T13:10:49.802Z,96685.00
2022-09-18T13:13:35.555Z,96689.00
2022-09-18T13:16:35.606Z,96679.00
2022-09-18T13:19:09.423Z,96681.00
2022-09-18T13:21:42.150Z,96677.00
2022-09-18T13:24:17.800Z,96672.00
2022-09-18T13:26:47.473Z,96677.00
2022-09-18T13:30:17.477Z,96678.00
2022-09-18T13:32:44.363Z,96685.00
2022-09-18T13:35:14.057Z,96683.00
2022-09-18T13:37:42.618Z,96678.00
2022-09-18T13:40:39.302Z,96684.00
2022-09-18T13:43:29.960Z,96685.00
2022-09-18T13:45:59.738Z,96690.00
2022-09-18T13:48:39.487Z,96684.00
2022-09-18T13:51:31.407Z,96672.00
2022-09-18T13:54:13.766Z,96680.00
2022-09-18T13:57:10.349Z,96677.00
2022-09-18T13:59:47.719Z,96680.00
2022-09-18T14:02:39.150Z,96673.00
2022-09-18T14:05:34.545Z,96676.00
2022-09-18T14:08:09.692Z,96672.00
2022-09-18T14:11:05.356Z,96672.00
2022-09-18T14:13:52.355Z,96671.00
2022-09-18T14:16:19.264Z,96662.00
2022-09-18T14:18:48.824Z,96660.00
2022-09-18T14:21:20.221Z,96651.00
2022-09-18T14:23:46.883Z,96660.00
2022-09-18T14:26:28.874Z,96666.00
2022-09-18T14:29:06.333Z,96651.00
2022-09-18T14:31:58.101Z,96662.00
2022-09-18T14:34:44.116Z,96658.00
2022-09-18T14:37:31.016Z,96657.00
2022-09-18T14:39:59.005Z,96656.00
2022-09-18T14:42:36.888Z,96647.00
2022-09-18T14:45:13.030Z,96646.00
2022-09-18T14:47:46.730Z,96645.00
2022-09-18T14:50:27.154Z,96648.00
2022-09-18T14:52:57.281Z,96636.00
2022-09-18T14:55:39.062Z,96635.00
2022-09-18T14:58:11.944Z,96633.00
2022-09-18T15:00:40.056Z,96629.00
2022-09-18T15:03:39.758Z,96624.00
2022-09-18T15:06:12.767Z,96632.00
2022-09-18T15:08:39.749Z,96625.00
2022-09-18T15:11:07.246Z,96634.00
2022-09-18T15:13:37.665Z,96631.00
2022-09-18T15:16:04.726Z,96619.00
2022-09-18T15:18:41.721Z,96622.00
2022-09-18T15:21:33.471Z,96614.00
2022-09-18T15:24:03.761Z,96618.00
2022-09-18T15:26:48.622Z,96612.00
2022-09-18T15:29:41.746Z,96621.00
2022-09-18T15:32:12.585Z,96616.00
2022-09-18T15:34:48.149Z,96622.00
2022-09-18T15:37:21.894Z,96615.00
2022-09-18T15:40:02.129Z,96621.00
2022-09-18T15:42:38.113Z,96619.00
2022-09-18T15:45:07.780Z,96618.00
2022-09-18T15:47:37.835Z,96624.00
2022-09-18T15:50:13.202Z,96632.00
2022-09-18T15:52:54.962Z,96607.00
2022-09-18T15:55:25.981Z,96614.00
2022-09-18T15:58:01.212Z,96615.00
2022-09-18T16:00:31.568Z,96609.00
2022-09-18T16:03:02.057Z,96610.00
2022-09-18T16:05:31.322Z,96604.00
2022-09-18T16:08:19.211Z,96606.00
2022-09-18T16:10:50.926Z,96593.00
2022-09-18T16:13:17.624Z,96595.00
2022-09-18T16:15:47.438Z,96594.00
2022-09-18T16:18:29.148Z,96608.00
2022-09-18T16:20:57.584Z,96598.00
2022-09-18T16:23:36.506Z,96603.00
2022-09-18T16:26:35.181Z,96585.00
2022-09-18T16:29:17.955Z,96583.00
2022-09-18T16:31:45.678Z,96575.00
2022-09-18T16:34:27.613Z,96584.00
2022-09-18T16:36:56.024Z,96585.00
2022-09-18T16:39:25.861Z,96573.00
2022-09-18T16:41:53.548Z,96589.00
2022-09-18T16:44:20.481Z,96592.00
2022-09-18T16:47:02.104Z,96583.00
2022-09-18T16:49:35.641Z,96579.00
2022-09-18T16:52:02.757Z,96574.00
2022-09-18T16:54:29.557Z,96578.00
2022-09-18T16:57:13.640Z,96578.00
2022-09-18T16:59:42.906Z,96573.00
2022-09-18T17:02:12.539Z,96573.00
2022-09-18T17:04:39.335Z,96575.00
2022-09-18T17:07:06.505Z,96575.00
2022-09-18T17:09:33.656Z,96582.00
2022-09-18T17:12:00.643Z,96578.00
2022-09-18T17:14:27.489Z,96577.00
2022-09-18T17:16:54.396Z,96577.00
2022-09-18T17:19:21.543Z,96585.00
2022-09-18T17:21:49.293Z,96586.00
2022-09-18T17:24:17.402Z,96580.00
2022-09-18T17:26:44.342Z,96590.00
2022-09-18T17:29:11.952Z,96586.00
2022-09-18T17:31:38.848Z,96581.00
2022-09-18T17:34:05.966Z,96580.00
2022-09-18T17:36:35.903Z,96581.00
2022-09-18T17:39:03.781Z,96568.00
2022-09-18T17:41:32.374Z,96579.00
2022-09-18T17:43:59.241Z,96578.00
2022-09-18T17:46:27.285Z,96576.00
2022-09-18T17:48:59.519Z,96580.00
2022-09-18T17:51:28.898Z,96575.00
2022-09-18T17:54:02.999Z,96575.00
2022-09-18T17:56:31.627Z,96583.00
2022-09-18T17:59:08.725Z,96577.00
2022-09-18T18:01:38.185Z,96570.00
2022-09-18T18:04:06.280Z,96584.00
2022-09-18T18:06:35.196Z,96577.00
2022-09-18T18:09:02.032Z,96591.00
2022-09-18T18:11:29.587Z,96582.00
2022-09-18T18:13:56.372Z,96588.00
2022-09-18T18:16:30.674Z,96591.00
2022-09-18T18:19:06.922Z,96583.00
2022-09-18T18:21:36.458Z,96574.00
2022-09-18T18:24:08.846Z,96578.00
2022-09-18T18:26:39.727Z,96594.00
2022-09-18T18:29:10.967Z,96583.00
2022-09-18T18:31:40.546Z,96577.00
2022-09-18T18:34:10.558Z,96588.00
2022-09-18T18:36:39.581Z,96583.00
2022-09-18T18:39:12.044Z,96587.00
2022-09-18T18:41:39.639Z,96583.00
2022-09-18T18:44:07.498Z,96586.00
2022-09-18T18:46:37.020Z,96577.00
2022-09-18T18:49:10.599Z,96577.00
2022-09-18T18:51:45.057Z,96583.00
2022-09-18T18:54:12.893Z,96576.00
2022-09-18T18:56:41.285Z,96570.00
2022-09-18T18:59:12.529Z,96562.00
2022-09-18T19:01:40.828Z,96573.00
2022-09-18T19:04:12.618Z,96576.00
2022-09-18T19:06:43.098Z,96582.00
2022-09-18T19:09:19.854Z,96581.00
2022-09-18T19:11:48.432Z,96576.00
2022-09-18T19:14:22.369Z,96586.00
2022-09-18T19:16:50.383Z,96567.00
2022-09-18T19:19:20.149Z,96569.00
2022-09-18T19:21:47.638Z,96567.00
2022-09-18T19:24:15.589Z,96582.00
2022-09-18T19:26:43.307Z,96571.00
2022-09-18T19:29:14.847Z,96580.00
2022-09-18T19:31:44.338Z,96567.00
2022-09-18T19:34:20.084Z,96566.00
2022-09-18T19:36:50.308Z,96572.00
2022-09-18T19:39:20.950Z,96579.00
2022-09-18T19:41:53.107Z,96573.00
2022-09-18T19:44:47.552Z,96566.00
2022-09-18T19:47:25.963Z,96570.00
2022-09-18T19:49:55.249Z,96568.00
2022-09-18T19:52:27.283Z,96571.00
2022-09-18T19:54:56.516Z,96570.00
2022-09-18T19:57:24.573Z,96560.00
2022-09-18T19:59:54.175Z,96567.00
2022-09-18T20:02:23.848Z,96557.00
2022-09-18T20:04:50.698Z,96557.00
2022-09-18T20:07:17.568Z,96554.00
2022-09-18T20:09:44.319Z,96554.00
2022-09-18T20:12:11.199Z,96558.00
2022-09-18T20:14:37.966Z,96558.00
2022-09-18T20:17:05.177Z,96552.00
2022-09-18T20:19:31.947Z,96547.00
2022-09-18T20:22:02.724Z,96548.00
2022-09-18T20:24:31.093Z,96557.00
2022-09-18T20:26:59.070Z,96554.00
2022-09-18T20:29:27.423Z,96549.00
2022-09-18T20:31:54.678Z,96542.00
2022-09-18T20:34:22.474Z,96539.00
2022-09-18T20:36:51.890Z,96537.00
2022-09-18T20:39:19.289Z,96530.00
2022-09-18T20:41:46.458Z,96529.00
2022-09-18T20:44:13.436Z,96531.00
2022-09-18T20:46:40.483Z,96526.00
2022-09-18T20:49:07.883Z,96525.00
2022-09-18T20:51:35.854Z,96521.00
2022-09-18T20:54:07.952Z,96527.00
2022-09-18T20:56:41.985Z,96530.00
2022-09-18T20:59:10.675Z,96523.00
2022-09-18T21:01:41.510Z,96515.00
2022-09-18T21:04:16.847Z,96523.00
2022-09-18T21:06:56.026Z,96527.00
2022-09-18T21:09:26.612Z,96521.00
2022-09-18T21:11:53.503Z,96515.00
2022-09-18T21:14:21.046Z,96508.00
2022-09-18T21:16:48.996Z,96510.00
2022-09-18T21:19:21.124Z,96507.00
2022-09-18T21:21:49.739Z,96504.00
2022-09-18T21:24:17.851Z,96506.00
2022-09-18T21:26:49.662Z,96506.00
2022-09-18T21:29:23.525Z,96508.00
2022-09-18T21:31:58.987Z,96507.00
2022-09-18T21:34:31.434Z,96497.00
2022-09-18T21:37:04.466Z,96492.00
2022-09-18T21:39:32.215Z,96495.00
2022-09-18T21:42:01.272Z,96491.00
2022-09-18T21:44:31.692Z,96501.00
2022-09-18T21:47:01.874Z,96497.00
2022-09-18T21:49:29.286Z,96503.00
2022-09-18T21:52:00.003Z,96514.00
2022-09-18T21:54:27.728Z,96501.00
2022-09-18T21:56:56.537Z,96513.00
2022-09-18T21:59:26.234Z,96516.00
2022-09-18T22:01:54.678Z,96514.00
2022-09-18T22:04:27.592Z,96510.00
2022-09-18T22:06:57.408Z,96520.00
2022-09-18T22:09:34.722Z,96513.00
2022-09-18T22:12:02.257Z,96518.00
2022-09-18T22:14:32.644Z,96525.00
2022-09-18T22:17:09.200Z,96518.00
2022-09-18T22:19:40.548Z,96516.00
2022-09-18T22:22:08.564Z,96511.00
2022-09-18T22:24:35.382Z,96511.00
2022-09-18T22:27:08.129Z,96515.00
2022-09-18T22:29:37.826Z,96517.00
2022-09-18T22:32:05.486Z,96525.00
2022-09-18T22:34:34.859Z,96523.00
2022-09-18T22:37:02.701Z,96520.00
2022-09-18T22:39:30.084Z,96521.00
2022-09-18T22:41:57.280Z,96520.00
2022-09-18T22:44:24.540Z,96526.00
2022-09-18T22:46:52.822Z,96531.00
2022-09-18T22:49:21.777Z,96534.00
2022-09-18T22:51:48.865Z,96539.00
2022-09-18T22:54:16.750Z,96530.00
2022-09-18T22:56:49.742Z,96533.00
2022-09-18T22:59:19.197Z,96529.00
2022-09-18T23:01:55.322Z,96523.00
2022-09-18T23:04:25.358Z,96528.00
2022-09-18T23:06:52.189Z,96535.00
2022-09-18T23:09:20.233Z,96529.00
2022-09-18T23:11:50.466Z,96525.00
2022-09-18T23:14:21.536Z,96527.00
2022-09-18T23:16:49.858Z,96542.00
2022-09-18T23:19:24.295Z,96534.00
2022-09-18T23:21:51.570Z,96551.00
2022-09-18T23:24:18.784Z,96553.00
2022-09-18T23:26:49.242Z,96534.00
2022-09-18T23:29:22.273Z,96533.00
2022-09-18T23:31:52.842Z,96542.00
2022-09-18T23:34:23.693Z,96539.00
2022-09-18T23:36:54.000Z,96549.00
2022-09-18T23:39:34.532Z,96546.00
2022-09-18T23:42:03.104Z,96546.00
2022-09-18T23:44:34.121Z,96543.00
2022-09-18T23:47:01.599Z,96534.00
2022-09-18T23:49:29.530Z,96550.00
2022-09-18T23:51:56.966Z,96536.00
2022-09-18T23:54:28.107Z,96552.00
2022-09-18T23:56:55.418Z,96557.00
2022-09-18T23:59:24.377Z,96556.00
